sensor_id;sensor_type;location;lat;lon;timestamp;P1;durP1;ratioP1;P2;durP2;ratioP2
7983;SDS011;4037;47.980;10.172;2022-10-16T00:00:00;2.43;;;2.23;;
7983;SDS011;4037;47.980;10.172;2022-10-16T00:02:26;5.57;;;2.20;;
7983;SDS011;4037;47.980;10.172;2022-10-16T00:04:52;2.27;;;2.00;;
7983;SDS011;4037;47.980;10.172;2022-10-16T00:07:19;2.63;;;2.33;;
7983;SDS011;4037;47.980;10.172;2022-10-16T00:09:46;3.73;;;2.37;;
7983;SDS011;4037;47.980;10.172;2022-10-16T00:12:12;4.33;;;2.80;;
7983;SDS011;4037;47.980;10.172;2022-10-16T00:14:38;3.30;;;2.50;;
7983;SDS011;4037;47.980;10.172;2022-10-16T00:17:06;2.43;;;2.23;;
7983;SDS011;4037;47.980;10.172;2022-10-16T00:19:32;3.47;;;2.43;;
7983;SDS011;4037;47.980;10.172;2022-10-16T00:21:58;4.10;;;2.50;;
7983;SDS011;4037;47.980;10.172;2022-10-16T00:24:24;4.57;;;2.70;;
7983;SDS011;4037;47.980;10.172;2022-10-16T00:26:50;2.90;;;2.17;;
7983;SDS011;4037;47.980;10.172;2022-10-16T00:29:16;4.13;;;2.93;;
7983;SDS011;4037;47.980;10.172;2022-10-16T00:31:42;7.90;;;2.70;;
7983;SDS011;4037;47.980;10.172;2022-10-16T00:34:08;3.20;;;2.90;;
7983;SDS011;4037;47.980;10.172;2022-10-16T00:36:34;2.70;;;2.47;;
7983;SDS011;4037;47.980;10.172;2022-10-16T00:39:00;2.57;;;2.37;;
7983;SDS011;4037;47.980;10.172;2022-10-16T00:41:27;4.00;;;2.60;;
7983;SDS011;4037;47.980;10.172;2022-10-16T00:43:54;4.83;;;2.87;;
7983;SDS011;4037;47.980;10.172;2022-10-16T00:49:05;2.60;;;2.40;;
7983;SDS011;4037;47.980;10.172;2022-10-16T00:51:33;4.60;;;2.33;;
7983;SDS011;4037;47.980;10.172;2022-10-16T00:54:00;9.40;;;2.50;;
7983;SDS011;4037;47.980;10.172;2022-10-16T00:56:27;4.17;;;2.60;;
7983;SDS011;4037;47.980;10.172;2022-10-16T00:58:54;4.93;;;1.97;;
7983;SDS011;4037;47.980;10.172;2022-10-16T01:01:20;3.30;;;2.13;;
7983;SDS011;4037;47.980;10.172;2022-10-16T01:03:46;5.47;;;2.13;;
7983;SDS011;4037;47.980;10.172;2022-10-16T01:13:43;2.87;;;1.90;;
7983;SDS011;4037;47.980;10.172;2022-10-16T01:18:39;5.20;;;3.27;;
7983;SDS011;4037;47.980;10.172;2022-10-16T01:21:13;2.90;;;2.50;;
7983;SDS011;4037;47.980;10.172;2022-10-16T01:31:47;5.27;;;2.53;;
7983;SDS011;4037;47.980;10.172;2022-10-16T01:34:16;2.97;;;2.30;;
7983;SDS011;4037;47.980;10.172;2022-10-16T01:36:48;3.43;;;2.40;;
7983;SDS011;4037;47.980;10.172;2022-10-16T01:39:16;5.60;;;2.50;;
7983;SDS011;4037;47.980;10.172;2022-10-16T01:41:45;2.80;;;2.50;;
7983;SDS011;4037;47.980;10.172;2022-10-16T01:44:22;4.70;;;2.47;;
7983;SDS011;4037;47.980;10.172;2022-10-16T01:46:49;4.00;;;2.60;;
7983;SDS011;4037;47.980;10.172;2022-10-16T01:49:16;2.73;;;2.30;;
7983;SDS011;4037;47.980;10.172;2022-10-16T01:51:43;3.23;;;2.70;;
7983;SDS011;4037;47.980;10.172;2022-10-16T01:54:10;4.37;;;2.43;;
7983;SDS011;4037;47.980;10.172;2022-10-16T01:56:37;2.90;;;2.43;;
7983;SDS011;4037;47.980;10.172;2022-10-16T01:59:07;2.67;;;2.47;;
7983;SDS011;4037;47.980;10.172;2022-10-16T02:01:35;2.87;;;2.40;;
7983;SDS011;4037;47.980;10.172;2022-10-16T02:04:13;3.50;;;2.70;;
7983;SDS011;4037;47.980;10.172;2022-10-16T02:06:40;2.67;;;2.43;;
7983;SDS011;4037;47.980;10.172;2022-10-16T02:09:06;2.43;;;2.23;;
7983;SDS011;4037;47.980;10.172;2022-10-16T02:11:33;5.20;;;3.10;;
7983;SDS011;4037;47.980;10.172;2022-10-16T02:14:00;9.20;;;3.03;;
7983;SDS011;4037;47.980;10.172;2022-10-16T02:16:34;2.90;;;2.40;;
7983;SDS011;4037;47.980;10.172;2022-10-16T02:19:00;2.70;;;2.50;;
7983;SDS011;4037;47.980;10.172;2022-10-16T02:21:28;2.87;;;2.50;;
7983;SDS011;4037;47.980;10.172;2022-10-16T02:26:44;4.67;;;2.27;;
7983;SDS011;4037;47.980;10.172;2022-10-16T02:29:12;2.80;;;2.13;;
7983;SDS011;4037;47.980;10.172;2022-10-16T02:31:41;2.80;;;2.03;;
7983;SDS011;4037;47.980;10.172;2022-10-16T02:34:09;6.73;;;2.33;;
7983;SDS011;4037;47.980;10.172;2022-10-16T02:36:37;3.97;;;2.43;;
7983;SDS011;4037;47.980;10.172;2022-10-16T02:39:03;2.33;;;2.13;;
7983;SDS011;4037;47.980;10.172;2022-10-16T02:41:30;4.93;;;2.00;;
7983;SDS011;4037;47.980;10.172;2022-10-16T02:43:56;2.50;;;2.30;;
7983;SDS011;4037;47.980;10.172;2022-10-16T02:46:22;3.83;;;2.20;;
7983;SDS011;4037;47.980;10.172;2022-10-16T02:48:48;2.43;;;2.10;;
7983;SDS011;4037;47.980;10.172;2022-10-16T02:51:14;3.23;;;2.03;;
7983;SDS011;4037;47.980;10.172;2022-10-16T02:53:40;3.43;;;2.13;;
7983;SDS011;4037;47.980;10.172;2022-10-16T02:56:06;2.80;;;2.10;;
7983;SDS011;4037;47.980;10.172;2022-10-16T02:58:32;2.80;;;2.00;;
7983;SDS011;4037;47.980;10.172;2022-10-16T03:00:58;3.03;;;2.00;;
7983;SDS011;4037;47.980;10.172;2022-10-16T03:03:24;2.80;;;2.00;;
7983;SDS011;4037;47.980;10.172;2022-10-16T03:05:50;4.23;;;2.20;;
7983;SDS011;4037;47.980;10.172;2022-10-16T03:08:16;3.50;;;2.03;;
7983;SDS011;4037;47.980;10.172;2022-10-16T03:10:42;4.47;;;2.10;;
7983;SDS011;4037;47.980;10.172;2022-10-16T03:13:08;2.17;;;1.97;;
7983;SDS011;4037;47.980;10.172;2022-10-16T03:15:34;2.33;;;1.77;;
7983;SDS011;4037;47.980;10.172;2022-10-16T03:18:00;3.17;;;1.73;;
7983;SDS011;4037;47.980;10.172;2022-10-16T03:20:26;5.90;;;1.93;;
7983;SDS011;4037;47.980;10.172;2022-10-16T03:22:52;8.63;;;1.53;;
7983;SDS011;4037;47.980;10.172;2022-10-16T03:25:18;2.33;;;1.97;;
7983;SDS011;4037;47.980;10.172;2022-10-16T03:27:44;6.77;;;2.60;;
7983;SDS011;4037;47.980;10.172;2022-10-16T03:30:10;3.27;;;2.13;;
7983;SDS011;4037;47.980;10.172;2022-10-16T03:32:36;7.23;;;2.10;;
7983;SDS011;4037;47.980;10.172;2022-10-16T03:35:02;2.87;;;1.73;;
7983;SDS011;4037;47.980;10.172;2022-10-16T03:37:28;3.73;;;1.80;;
7983;SDS011;4037;47.980;10.172;2022-10-16T03:39:54;3.70;;;1.80;;
7983;SDS011;4037;47.980;10.172;2022-10-16T03:42:20;5.80;;;1.90;;
7983;SDS011;4037;47.980;10.172;2022-10-16T03:44:46;2.17;;;1.70;;
7983;SDS011;4037;47.980;10.172;2022-10-16T03:47:12;4.00;;;2.03;;
7983;SDS011;4037;47.980;10.172;2022-10-16T03:49:38;3.77;;;2.10;;
7983;SDS011;4037;47.980;10.172;2022-10-16T03:52:04;4.87;;;2.00;;
7983;SDS011;4037;47.980;10.172;2022-10-16T03:54:30;3.60;;;1.90;;
7983;SDS011;4037;47.980;10.172;2022-10-16T03:56:56;8.20;;;1.77;;
7983;SDS011;4037;47.980;10.172;2022-10-16T03:59:22;3.97;;;1.80;;
7983;SDS011;4037;47.980;10.172;2022-10-16T04:01:48;3.03;;;1.80;;
7983;SDS011;4037;47.980;10.172;2022-10-16T04:04:14;2.17;;;1.97;;
7983;SDS011;4037;47.980;10.172;2022-10-16T04:06:40;3.03;;;2.10;;
7983;SDS011;4037;47.980;10.172;2022-10-16T04:09:06;2.77;;;1.87;;
7983;SDS011;4037;47.980;10.172;2022-10-16T04:11:32;2.50;;;2.03;;
7983;SDS011;4037;47.980;10.172;2022-10-16T04:13:58;2.60;;;2.20;;
7983;SDS011;4037;47.980;10.172;2022-10-16T04:16:24;2.17;;;1.70;;
7983;SDS011;4037;47.980;10.172;2022-10-16T04:18:50;2.60;;;1.73;;
7983;SDS011;4037;47.980;10.172;2022-10-16T04:21:16;4.27;;;2.27;;
7983;SDS011;4037;47.980;10.172;2022-10-16T04:23:42;4.47;;;2.33;;
7983;SDS011;4037;47.980;10.172;2022-10-16T04:26:08;2.40;;;2.20;;
7983;SDS011;4037;47.980;10.172;2022-10-16T04:28:35;1.70;;;1.60;;
7983;SDS011;4037;47.980;10.172;2022-10-16T04:31:05;6.10;;;1.97;;
7983;SDS011;4037;47.980;10.172;2022-10-16T04:33:31;2.23;;;1.73;;
7983;SDS011;4037;47.980;10.172;2022-10-16T04:35:57;2.00;;;1.80;;
7983;SDS011;4037;47.980;10.172;2022-10-16T04:38:23;4.13;;;2.00;;
7983;SDS011;4037;47.980;10.172;2022-10-16T04:40:49;2.33;;;1.67;;
7983;SDS011;4037;47.980;10.172;2022-10-16T04:43:16;1.87;;;1.70;;
7983;SDS011;4037;47.980;10.172;2022-10-16T04:45:42;2.97;;;1.80;;
7983;SDS011;4037;47.980;10.172;2022-10-16T04:48:08;2.97;;;1.50;;
7983;SDS011;4037;47.980;10.172;2022-10-16T04:50:34;2.43;;;1.63;;
7983;SDS011;4037;47.980;10.172;2022-10-16T04:53:00;2.07;;;1.60;;
7983;SDS011;4037;47.980;10.172;2022-10-16T04:55:26;3.13;;;1.83;;
7983;SDS011;4037;47.980;10.172;2022-10-16T04:57:52;2.93;;;1.97;;
7983;SDS011;4037;47.980;10.172;2022-10-16T05:00:18;2.50;;;1.40;;
7983;SDS011;4037;47.980;10.172;2022-10-16T05:02:44;2.80;;;1.40;;
7983;SDS011;4037;47.980;10.172;2022-10-16T05:05:10;3.20;;;1.73;;
7983;SDS011;4037;47.980;10.172;2022-10-16T05:07:36;2.07;;;1.70;;
7983;SDS011;4037;47.980;10.172;2022-10-16T05:10:02;2.63;;;1.67;;
7983;SDS011;4037;47.980;10.172;2022-10-16T05:12:29;4.07;;;1.90;;
7983;SDS011;4037;47.980;10.172;2022-10-16T05:14:55;2.37;;;1.70;;
7983;SDS011;4037;47.980;10.172;2022-10-16T05:17:23;1.67;;;1.57;;
7983;SDS011;4037;47.980;10.172;2022-10-16T05:19:50;1.80;;;1.70;;
7983;SDS011;4037;47.980;10.172;2022-10-16T05:22:16;2.50;;;1.80;;
7983;SDS011;4037;47.980;10.172;2022-10-16T05:24:42;4.03;;;1.50;;
7983;SDS011;4037;47.980;10.172;2022-10-16T05:27:08;2.27;;;1.50;;
7983;SDS011;4037;47.980;10.172;2022-10-16T05:29:34;4.20;;;1.37;;
7983;SDS011;4037;47.980;10.172;2022-10-16T05:32:00;2.87;;;1.40;;
7983;SDS011;4037;47.980;10.172;2022-10-16T05:34:26;3.80;;;1.43;;
7983;SDS011;4037;47.980;10.172;2022-10-16T05:36:52;1.60;;;1.50;;
7983;SDS011;4037;47.980;10.172;2022-10-16T05:39:18;3.90;;;1.37;;
7983;SDS011;4037;47.980;10.172;2022-10-16T05:41:44;2.87;;;1.50;;
7983;SDS011;4037;47.980;10.172;2022-10-16T05:44:10;3.57;;;1.50;;
7983;SDS011;4037;47.980;10.172;2022-10-16T05:46:37;2.70;;;1.33;;
7983;SDS011;4037;47.980;10.172;2022-10-16T05:49:03;1.50;;;1.40;;
7983;SDS011;4037;47.980;10.172;2022-10-16T05:51:29;2.20;;;1.47;;
7983;SDS011;4037;47.980;10.172;2022-10-16T05:53:55;9.13;;;1.70;;
7983;SDS011;4037;47.980;10.172;2022-10-16T05:56:21;3.43;;;1.10;;
7983;SDS011;4037;47.980;10.172;2022-10-16T05:58:47;2.57;;;1.40;;
7983;SDS011;4037;47.980;10.172;2022-10-16T06:01:14;3.60;;;1.30;;
7983;SDS011;4037;47.980;10.172;2022-10-16T06:03:40;6.03;;;1.70;;
7983;SDS011;4037;47.980;10.172;2022-10-16T06:06:07;6.33;;;1.50;;
7983;SDS011;4037;47.980;10.172;2022-10-16T06:08:34;1.80;;;1.40;;
7983;SDS011;4037;47.980;10.172;2022-10-16T06:11:03;3.27;;;1.50;;
7983;SDS011;4037;47.980;10.172;2022-10-16T06:13:30;1.40;;;1.30;;
7983;SDS011;4037;47.980;10.172;2022-10-16T06:15:56;2.63;;;1.43;;
7983;SDS011;4037;47.980;10.172;2022-10-16T06:18:23;1.30;;;1.20;;
7983;SDS011;4037;47.980;10.172;2022-10-16T06:20:49;1.37;;;1.27;;
7983;SDS011;4037;47.980;10.172;2022-10-16T06:23:15;4.20;;;1.60;;
7983;SDS011;4037;47.980;10.172;2022-10-16T06:25:41;2.13;;;1.30;;
7983;SDS011;4037;47.980;10.172;2022-10-16T06:28:07;2.63;;;1.30;;
7983;SDS011;4037;47.980;10.172;2022-10-16T06:30:33;2.13;;;1.33;;
7983;SDS011;4037;47.980;10.172;2022-10-16T06:32:59;2.30;;;1.20;;
7983;SDS011;4037;47.980;10.172;2022-10-16T06:35:25;3.03;;;1.27;;
7983;SDS011;4037;47.980;10.172;2022-10-16T06:37:52;4.90;;;1.30;;
7983;SDS011;4037;47.980;10.172;2022-10-16T06:40:18;1.67;;;1.43;;
7983;SDS011;4037;47.980;10.172;2022-10-16T06:42:44;3.80;;;1.50;;
7983;SDS011;4037;47.980;10.172;2022-10-16T06:45:10;1.37;;;1.27;;
7983;SDS011;4037;47.980;10.172;2022-10-16T06:47:36;2.17;;;1.20;;
7983;SDS011;4037;47.980;10.172;2022-10-16T06:50:02;5.23;;;1.27;;
7983;SDS011;4037;47.980;10.172;2022-10-16T06:52:29;2.77;;;1.50;;
7983;SDS011;4037;47.980;10.172;2022-10-16T06:54:55;2.90;;;1.57;;
7983;SDS011;4037;47.980;10.172;2022-10-16T06:57:21;1.20;;;1.10;;
7983;SDS011;4037;47.980;10.172;2022-10-16T06:59:47;3.50;;;1.40;;
7983;SDS011;4037;47.980;10.172;2022-10-16T07:02:13;2.23;;;1.50;;
7983;SDS011;4037;47.980;10.172;2022-10-16T07:04:38;2.67;;;1.63;;
7983;SDS011;4037;47.980;10.172;2022-10-16T07:07:04;1.80;;;1.60;;
7983;SDS011;4037;47.980;10.172;2022-10-16T07:09:30;3.23;;;1.50;;
7983;SDS011;4037;47.980;10.172;2022-10-16T07:11:56;2.53;;;1.53;;
7983;SDS011;4037;47.980;10.172;2022-10-16T07:14:22;2.17;;;1.50;;
7983;SDS011;4037;47.980;10.172;2022-10-16T07:16:48;3.17;;;1.43;;
7983;SDS011;4037;47.980;10.172;2022-10-16T07:19:15;1.97;;;1.30;;
7983;SDS011;4037;47.980;10.172;2022-10-16T07:21:42;3.07;;;1.40;;
7983;SDS011;4037;47.980;10.172;2022-10-16T07:24:16;3.53;;;1.40;;
7983;SDS011;4037;47.980;10.172;2022-10-16T07:26:42;6.17;;;1.60;;
7983;SDS011;4037;47.980;10.172;2022-10-16T07:29:14;1.50;;;1.33;;
7983;SDS011;4037;47.980;10.172;2022-10-16T07:31:40;1.57;;;1.47;;
7983;SDS011;4037;47.980;10.172;2022-10-16T07:34:06;2.80;;;1.30;;
7983;SDS011;4037;47.980;10.172;2022-10-16T07:36:32;2.40;;;1.40;;
7983;SDS011;4037;47.980;10.172;2022-10-16T07:38:58;3.23;;;1.43;;
7983;SDS011;4037;47.980;10.172;2022-10-16T07:41:24;1.47;;;1.00;;
7983;SDS011;4037;47.980;10.172;2022-10-16T07:43:51;2.47;;;1.60;;
7983;SDS011;4037;47.980;10.172;2022-10-16T07:46:17;2.87;;;1.27;;
7983;SDS011;4037;47.980;10.172;2022-10-16T07:48:44;1.77;;;1.20;;
7983;SDS011;4037;47.980;10.172;2022-10-16T07:51:12;2.93;;;1.80;;
7983;SDS011;4037;47.980;10.172;2022-10-16T07:53:39;2.73;;;1.40;;
7983;SDS011;4037;47.980;10.172;2022-10-16T07:56:05;1.50;;;1.40;;
7983;SDS011;4037;47.980;10.172;2022-10-16T07:58:32;1.67;;;1.47;;
7983;SDS011;4037;47.980;10.172;2022-10-16T08:00:58;1.73;;;1.23;;
7983;SDS011;4037;47.980;10.172;2022-10-16T08:03:24;2.20;;;1.23;;
7983;SDS011;4037;47.980;10.172;2022-10-16T08:05:51;1.90;;;1.20;;
7983;SDS011;4037;47.980;10.172;2022-10-16T08:08:17;3.90;;;1.30;;
7983;SDS011;4037;47.980;10.172;2022-10-16T08:10:43;3.03;;;1.00;;
7983;SDS011;4037;47.980;10.172;2022-10-16T08:13:09;1.30;;;1.10;;
7983;SDS011;4037;47.980;10.172;2022-10-16T08:15:35;1.60;;;1.50;;
7983;SDS011;4037;47.980;10.172;2022-10-16T08:18:02;2.33;;;1.27;;
7983;SDS011;4037;47.980;10.172;2022-10-16T08:20:29;1.37;;;1.20;;
7983;SDS011;4037;47.980;10.172;2022-10-16T08:22:55;2.73;;;1.50;;
7983;SDS011;4037;47.980;10.172;2022-10-16T08:25:22;3.10;;;1.13;;
7983;SDS011;4037;47.980;10.172;2022-10-16T08:27:49;1.90;;;1.30;;
7983;SDS011;4037;47.980;10.172;2022-10-16T08:30:16;3.40;;;1.10;;
7983;SDS011;4037;47.980;10.172;2022-10-16T08:32:42;1.03;;;0.83;;
7983;SDS011;4037;47.980;10.172;2022-10-16T08:35:09;1.53;;;1.00;;
7983;SDS011;4037;47.980;10.172;2022-10-16T08:37:35;3.43;;;0.90;;
7983;SDS011;4037;47.980;10.172;2022-10-16T08:40:01;1.90;;;1.00;;
7983;SDS011;4037;47.980;10.172;2022-10-16T08:47:48;1.77;;;1.40;;
7983;SDS011;4037;47.980;10.172;2022-10-16T08:50:21;1.33;;;1.10;;
7983;SDS011;4037;47.980;10.172;2022-10-16T08:52:48;2.07;;;1.10;;
7983;SDS011;4037;47.980;10.172;2022-10-16T08:57:50;2.03;;;0.80;;
7983;SDS011;4037;47.980;10.172;2022-10-16T09:00:16;1.80;;;1.10;;
7983;SDS011;4037;47.980;10.172;2022-10-16T09:03:30;1.57;;;1.07;;
7983;SDS011;4037;47.980;10.172;2022-10-16T09:06:07;1.60;;;1.07;;
7983;SDS011;4037;47.980;10.172;2022-10-16T09:11:02;1.60;;;0.97;;
7983;SDS011;4037;47.980;10.172;2022-10-16T09:16:13;1.27;;;1.10;;
7983;SDS011;4037;47.980;10.172;2022-10-16T09:18:55;3.17;;;1.07;;
7983;SDS011;4037;47.980;10.172;2022-10-16T09:21:30;1.70;;;1.10;;
7983;SDS011;4037;47.980;10.172;2022-10-16T09:24:00;3.43;;;1.30;;
7983;SDS011;4037;47.980;10.172;2022-10-16T09:26:30;6.30;;;1.53;;
7983;SDS011;4037;47.980;10.172;2022-10-16T09:28:56;3.07;;;1.03;;
7983;SDS011;4037;47.980;10.172;2022-10-16T09:31:22;2.17;;;1.10;;
7983;SDS011;4037;47.980;10.172;2022-10-16T09:33:50;1.40;;;1.30;;
7983;SDS011;4037;47.980;10.172;2022-10-16T09:36:18;1.30;;;1.13;;
7983;SDS011;4037;47.980;10.172;2022-10-16T09:38:45;2.03;;;1.33;;
7983;SDS011;4037;47.980;10.172;2022-10-16T09:43:40;3.73;;;1.40;;
7983;SDS011;4037;47.980;10.172;2022-10-16T09:46:08;3.33;;;1.33;;
7983;SDS011;4037;47.980;10.172;2022-10-16T09:48:47;2.07;;;1.20;;
7983;SDS011;4037;47.980;10.172;2022-10-16T09:51:16;1.30;;;1.20;;
7983;SDS011;4037;47.980;10.172;2022-10-16T09:53:45;2.73;;;1.23;;
7983;SDS011;4037;47.980;10.172;2022-10-16T09:56:12;3.93;;;1.27;;
7983;SDS011;4037;47.980;10.172;2022-10-16T09:58:53;3.07;;;1.20;;
7983;SDS011;4037;47.980;10.172;2022-10-16T10:01:20;3.37;;;1.33;;
7983;SDS011;4037;47.980;10.172;2022-10-16T10:03:46;1.37;;;1.27;;
7983;SDS011;4037;47.980;10.172;2022-10-16T10:06:21;2.53;;;1.23;;
7983;SDS011;4037;47.980;10.172;2022-10-16T10:09:02;1.90;;;1.20;;
7983;SDS011;4037;47.980;10.172;2022-10-16T10:11:36;1.50;;;1.33;;
7983;SDS011;4037;47.980;10.172;2022-10-16T10:14:06;1.57;;;1.20;;
7983;SDS011;4037;47.980;10.172;2022-10-16T10:16:34;1.17;;;1.07;;
7983;SDS011;4037;47.980;10.172;2022-10-16T10:19:01;3.47;;;1.20;;
7983;SDS011;4037;47.980;10.172;2022-10-16T10:21:27;1.37;;;1.20;;
7983;SDS011;4037;47.980;10.172;2022-10-16T10:23:56;1.07;;;0.97;;
7983;SDS011;4037;47.980;10.172;2022-10-16T10:26:23;1.17;;;1.07;;
7983;SDS011;4037;47.980;10.172;2022-10-16T10:31:25;1.90;;;1.20;;
7983;SDS011;4037;47.980;10.172;2022-10-16T10:33:54;2.30;;;1.00;;
7983;SDS011;4037;47.980;10.172;2022-10-16T10:38:51;2.17;;;1.50;;
7983;SDS011;4037;47.980;10.172;2022-10-16T10:49:16;4.70;;;1.23;;
7983;SDS011;4037;47.980;10.172;2022-10-16T10:54:27;2.60;;;1.00;;
7983;SDS011;4037;47.980;10.172;2022-10-16T10:56:58;2.53;;;1.33;;
7983;SDS011;4037;47.980;10.172;2022-10-16T11:02:31;1.10;;;1.00;;
7983;SDS011;4037;47.980;10.172;2022-10-16T11:04:54;2.23;;;1.00;;
7983;SDS011;4037;47.980;10.172;2022-10-16T11:07:47;1.50;;;0.90;;
7983;SDS011;4037;47.980;10.172;2022-10-16T11:13:03;2.70;;;0.90;;
7983;SDS011;4037;47.980;10.172;2022-10-16T11:15:38;2.50;;;0.93;;
7983;SDS011;4037;47.980;10.172;2022-10-16T11:18:11;1.40;;;1.00;;
7983;SDS011;4037;47.980;10.172;2022-10-16T11:23:16;1.00;;;0.83;;
7983;SDS011;4037;47.980;10.172;2022-10-16T11:25:44;1.73;;;1.03;;
7983;SDS011;4037;47.980;10.172;2022-10-16T11:28:20;1.20;;;0.87;;
7983;SDS011;4037;47.980;10.172;2022-10-16T11:30:57;1.67;;;0.80;;
7983;SDS011;4037;47.980;10.172;2022-10-16T11:33:35;1.43;;;0.90;;
7983;SDS011;4037;47.980;10.172;2022-10-16T11:39:02;1.10;;;0.97;;
7983;SDS011;4037;47.980;10.172;2022-10-16T11:44:06;1.30;;;0.90;;
7983;SDS011;4037;47.980;10.172;2022-10-16T11:46:35;1.43;;;0.80;;
7983;SDS011;4037;47.980;10.172;2022-10-16T11:49:13;1.83;;;0.80;;
7983;SDS011;4037;47.980;10.172;2022-10-16T11:56:48;1.48;;;0.90;;
7983;SDS011;4037;47.980;10.172;2022-10-16T11:59:20;0.98;;;0.77;;
7983;SDS011;4037;47.980;10.172;2022-10-16T12:05:00;1.60;;;0.90;;
7983;SDS011;4037;47.980;10.172;2022-10-16T12:07:24;0.88;;;0.77;;
7983;SDS011;4037;47.980;10.172;2022-10-16T12:09:52;2.42;;;0.80;;
7983;SDS011;4037;47.980;10.172;2022-10-16T12:12:25;2.17;;;1.10;;
7983;SDS011;4037;47.980;10.172;2022-10-16T12:15:03;1.67;;;0.80;;
7983;SDS011;4037;47.980;10.172;2022-10-16T12:17:36;1.00;;;0.80;;
7983;SDS011;4037;47.980;10.172;2022-10-16T12:20:22;1.35;;;0.73;;
7983;SDS011;4037;47.980;10.172;2022-10-16T12:25:26;0.85;;;0.80;;
7983;SDS011;4037;47.980;10.172;2022-10-16T12:30:26;2.13;;;0.82;;
7983;SDS011;4037;47.980;10.172;2022-10-16T12:32:53;1.75;;;0.93;;
7983;SDS011;4037;47.980;10.172;2022-10-16T12:35:23;2.38;;;0.98;;
7983;SDS011;4037;47.980;10.172;2022-10-16T12:37:50;1.77;;;1.00;;
7983;SDS011;4037;47.980;10.172;2022-10-16T12:40:25;0.70;;;0.70;;
7983;SDS011;4037;47.980;10.172;2022-10-16T12:42:51;1.30;;;0.80;;
7983;SDS011;4037;47.980;10.172;2022-10-16T12:45:31;3.15;;;1.00;;
7983;SDS011;4037;47.980;10.172;2022-10-16T12:47:57;1.33;;;0.90;;
7983;SDS011;4037;47.980;10.172;2022-10-16T12:50:26;1.58;;;0.80;;
7983;SDS011;4037;47.980;10.172;2022-10-16T12:52:52;1.02;;;0.68;;
7983;SDS011;4037;47.980;10.172;2022-10-16T12:55:19;1.10;;;0.85;;
7983;SDS011;4037;47.980;10.172;2022-10-16T13:24:06;1.00;;;0.80;;
7983;SDS011;4037;47.980;10.172;2022-10-16T13:26:43;1.88;;;1.33;;
7983;SDS011;4037;47.980;10.172;2022-10-16T13:29:10;1.35;;;0.63;;
7983;SDS011;4037;47.980;10.172;2022-10-16T13:31:37;0.75;;;0.60;;
7983;SDS011;4037;47.980;10.172;2022-10-16T13:34:04;0.80;;;0.60;;
7983;SDS011;4037;47.980;10.172;2022-10-16T13:36:35;0.98;;;0.75;;
7983;SDS011;4037;47.980;10.172;2022-10-16T13:39:09;0.88;;;0.70;;
7983;SDS011;4037;47.980;10.172;2022-10-16T13:41:36;0.80;;;0.70;;
7983;SDS011;4037;47.980;10.172;2022-10-16T13:44:02;0.90;;;0.68;;
7983;SDS011;4037;47.980;10.172;2022-10-16T13:46:28;0.80;;;0.63;;
7983;SDS011;4037;47.980;10.172;2022-10-16T13:49:03;0.65;;;0.65;;
7983;SDS011;4037;47.980;10.172;2022-10-16T13:51:30;1.15;;;0.80;;
7983;SDS011;4037;47.980;10.172;2022-10-16T13:53:56;0.88;;;0.55;;
7983;SDS011;4037;47.980;10.172;2022-10-16T13:56:25;1.88;;;0.77;;
7983;SDS011;4037;47.980;10.172;2022-10-16T13:59:26;2.63;;;0.60;;
7983;SDS011;4037;47.980;10.172;2022-10-16T14:01:44;2.22;;;0.80;;
7983;SDS011;4037;47.980;10.172;2022-10-16T14:04:11;1.38;;;0.50;;
7983;SDS011;4037;47.980;10.172;2022-10-16T14:06:40;1.80;;;0.85;;
7983;SDS011;4037;47.980;10.172;2022-10-16T14:11:32;1.40;;;0.98;;
7983;SDS011;4037;47.980;10.172;2022-10-16T14:14:00;2.15;;;0.68;;
7983;SDS011;4037;47.980;10.172;2022-10-16T14:16:28;1.10;;;0.70;;
7983;SDS011;4037;47.980;10.172;2022-10-16T14:18:56;2.00;;;0.85;;
7983;SDS011;4037;47.980;10.172;2022-10-16T14:21:22;1.48;;;0.70;;
7983;SDS011;4037;47.980;10.172;2022-10-16T14:23:49;0.77;;;0.70;;
7983;SDS011;4037;47.980;10.172;2022-10-16T14:26:20;1.17;;;0.80;;
7983;SDS011;4037;47.980;10.172;2022-10-16T14:28:46;2.42;;;1.00;;
7983;SDS011;4037;47.980;10.172;2022-10-16T14:33:45;1.50;;;0.90;;
7983;SDS011;4037;47.980;10.172;2022-10-16T14:36:12;1.35;;;0.80;;
7983;SDS011;4037;47.980;10.172;2022-10-16T14:38:40;1.02;;;0.70;;
7983;SDS011;4037;47.980;10.172;2022-10-16T14:41:06;1.35;;;0.95;;
7983;SDS011;4037;47.980;10.172;2022-10-16T14:43:39;0.93;;;0.80;;
7983;SDS011;4037;47.980;10.172;2022-10-16T14:46:11;1.65;;;0.90;;
7983;SDS011;4037;47.980;10.172;2022-10-16T14:48:41;1.25;;;0.90;;
7983;SDS011;4037;47.980;10.172;2022-10-16T14:51:09;2.75;;;0.93;;
7983;SDS011;4037;47.980;10.172;2022-10-16T14:53:38;1.00;;;0.75;;
7983;SDS011;4037;47.980;10.172;2022-10-16T14:56:08;1.33;;;0.95;;
7983;SDS011;4037;47.980;10.172;2022-10-16T14:58:34;3.22;;;0.95;;
7983;SDS011;4037;47.980;10.172;2022-10-16T15:01:00;2.40;;;0.82;;
7983;SDS011;4037;47.980;10.172;2022-10-16T15:03:26;1.65;;;0.90;;
7983;SDS011;4037;47.980;10.172;2022-10-16T15:05:53;1.67;;;0.98;;
7983;SDS011;4037;47.980;10.172;2022-10-16T15:08:19;3.92;;;1.00;;
7983;SDS011;4037;47.980;10.172;2022-10-16T15:10:45;1.58;;;1.10;;
7983;SDS011;4037;47.980;10.172;2022-10-16T15:13:14;5.03;;;1.40;;
7983;SDS011;4037;47.980;10.172;2022-10-16T15:15:42;1.65;;;1.38;;
7983;SDS011;4037;47.980;10.172;2022-10-16T15:18:08;2.53;;;1.20;;
7983;SDS011;4037;47.980;10.172;2022-10-16T15:20:35;3.75;;;1.20;;
7983;SDS011;4037;47.980;10.172;2022-10-16T15:23:04;2.65;;;1.45;;
7983;SDS011;4037;47.980;10.172;2022-10-16T15:25:37;2.13;;;1.30;;
7983;SDS011;4037;47.980;10.172;2022-10-16T15:28:04;1.67;;;1.45;;
7983;SDS011;4037;47.980;10.172;2022-10-16T15:30:32;1.90;;;1.30;;
7983;SDS011;4037;47.980;10.172;2022-10-16T15:32:58;2.13;;;1.70;;
7983;SDS011;4037;47.980;10.172;2022-10-16T15:35:24;3.15;;;1.42;;
7983;SDS011;4037;47.980;10.172;2022-10-16T15:37:50;3.80;;;1.20;;
7983;SDS011;4037;47.980;10.172;2022-10-16T15:40:17;1.92;;;1.20;;
7983;SDS011;4037;47.980;10.172;2022-10-16T15:42:43;4.05;;;1.35;;
7983;SDS011;4037;47.980;10.172;2022-10-16T15:45:10;1.98;;;1.00;;
7983;SDS011;4037;47.980;10.172;2022-10-16T15:47:36;2.25;;;1.17;;
7983;SDS011;4037;47.980;10.172;2022-10-16T15:50:03;4.03;;;1.10;;
7983;SDS011;4037;47.980;10.172;2022-10-16T15:52:29;2.80;;;1.23;;
7983;SDS011;4037;47.980;10.172;2022-10-16T15:54:56;1.83;;;1.10;;
7983;SDS011;4037;47.980;10.172;2022-10-16T15:57:22;4.85;;;1.10;;
7983;SDS011;4037;47.980;10.172;2022-10-16T15:59:49;2.13;;;1.15;;
7983;SDS011;4037;47.980;10.172;2022-10-16T16:02:15;1.45;;;1.10;;
7983;SDS011;4037;47.980;10.172;2022-10-16T16:04:41;1.92;;;1.10;;
7983;SDS011;4037;47.980;10.172;2022-10-16T16:07:07;1.77;;;0.95;;
7983;SDS011;4037;47.980;10.172;2022-10-16T16:09:33;3.43;;;1.20;;
7983;SDS011;4037;47.980;10.172;2022-10-16T16:11:59;1.20;;;1.10;;
7983;SDS011;4037;47.980;10.172;2022-10-16T16:14:26;2.10;;;1.25;;
7983;SDS011;4037;47.980;10.172;2022-10-16T16:16:53;1.20;;;1.10;;
7983;SDS011;4037;47.980;10.172;2022-10-16T16:19:19;2.73;;;1.20;;
7983;SDS011;4037;47.980;10.172;2022-10-16T16:21:46;1.97;;;1.50;;
7983;SDS011;4037;47.980;10.172;2022-10-16T16:24:12;2.50;;;1.63;;
7983;SDS011;4037;47.980;10.172;2022-10-16T16:26:38;3.20;;;1.40;;
7983;SDS011;4037;47.980;10.172;2022-10-16T16:29:08;3.20;;;1.67;;
7983;SDS011;4037;47.980;10.172;2022-10-16T16:31:34;2.70;;;1.70;;
7983;SDS011;4037;47.980;10.172;2022-10-16T16:34:00;2.93;;;1.77;;
7983;SDS011;4037;47.980;10.172;2022-10-16T16:36:26;2.63;;;1.47;;
7983;SDS011;4037;47.980;10.172;2022-10-16T16:38:52;1.70;;;1.50;;
7983;SDS011;4037;47.980;10.172;2022-10-16T16:41:19;2.33;;;1.70;;
7983;SDS011;4037;47.980;10.172;2022-10-16T16:43:46;5.93;;;2.33;;
7983;SDS011;4037;47.980;10.172;2022-10-16T16:46:12;4.33;;;2.70;;
7983;SDS011;4037;47.980;10.172;2022-10-16T16:48:39;3.97;;;2.40;;
7983;SDS011;4037;47.980;10.172;2022-10-16T16:51:05;4.13;;;2.43;;
7983;SDS011;4037;47.980;10.172;2022-10-16T16:53:33;4.73;;;2.40;;
7983;SDS011;4037;47.980;10.172;2022-10-16T16:56:03;3.47;;;2.60;;